sensor_id;sensor_type;location;lat;lon;timestamp;P1;durP1;ratioP1;P2;durP2;ratioP2
68074;SDS011;54864;52.002;5.468;2023-05-07T00:00:49;11.10;;;9.30;;
68074;SDS011;54864;52.002;5.468;2023-05-07T00:01:51;11.02;;;9.20;;
68074;SDS011;54864;52.002;5.468;2023-05-07T00:02:53;15.57;;;10.13;;
68074;SDS011;54864;52.002;5.468;2023-05-07T00:03:54;10.68;;;9.27;;
68074;SDS011;54864;52.002;5.468;2023-05-07T00:04:56;14.57;;;10.23;;
68074;SDS011;54864;52.002;5.468;2023-05-07T00:05:59;13.30;;;9.17;;
68074;SDS011;54864;52.002;5.468;2023-05-07T00:07:01;14.10;;;9.70;;
68074;SDS011;54864;52.002;5.468;2023-05-07T00:08:01;11.23;;;9.40;;
68074;SDS011;54864;52.002;5.468;2023-05-07T00:09:03;12.25;;;9.82;;
68074;SDS011;54864;52.002;5.468;2023-05-07T00:10:06;13.40;;;9.13;;
68074;SDS011;54864;52.002;5.468;2023-05-07T00:11:09;14.50;;;9.65;;
68074;SDS011;54864;52.002;5.468;2023-05-07T00:12:12;13.30;;;9.82;;
68074;SDS011;54864;52.002;5.468;2023-05-07T00:13:14;13.43;;;9.05;;
68074;SDS011;54864;52.002;5.468;2023-05-07T00:14:15;11.57;;;9.25;;
68074;SDS011;54864;52.002;5.468;2023-05-07T00:15:17;12.00;;;9.13;;
68074;SDS011;54864;52.002;5.468;2023-05-07T00:16:18;9.90;;;8.95;;
68074;SDS011;54864;52.002;5.468;2023-05-07T00:17:22;13.15;;;9.35;;
68074;SDS011;54864;52.002;5.468;2023-05-07T00:18:23;10.60;;;9.05;;
68074;SDS011;54864;52.002;5.468;2023-05-07T00:19:28;12.10;;;9.25;;
68074;SDS011;54864;52.002;5.468;2023-05-07T00:20:31;11.77;;;9.60;;
68074;SDS011;54864;52.002;5.468;2023-05-07T00:21:42;10.60;;;9.05;;
68074;SDS011;54864;52.002;5.468;2023-05-07T00:22:43;10.63;;;9.53;;
68074;SDS011;54864;52.002;5.468;2023-05-07T00:23:45;12.70;;;9.57;;
68074;SDS011;54864;52.002;5.468;2023-05-07T00:24:46;13.30;;;9.32;;
68074;SDS011;54864;52.002;5.468;2023-05-07T00:25:49;12.52;;;9.40;;
68074;SDS011;54864;52.002;5.468;2023-05-07T00:26:50;13.82;;;9.18;;
68074;SDS011;54864;52.002;5.468;2023-05-07T00:27:52;11.30;;;9.07;;
68074;SDS011;54864;52.002;5.468;2023-05-07T00:28:53;11.77;;;8.77;;
68074;SDS011;54864;52.002;5.468;2023-05-07T00:29:55;11.98;;;8.80;;
68074;SDS011;54864;52.002;5.468;2023-05-07T00:30:58;11.60;;;8.90;;
68074;SDS011;54864;52.002;5.468;2023-05-07T00:32:02;12.20;;;8.88;;
68074;SDS011;54864;52.002;5.468;2023-05-07T00:33:03;12.30;;;9.55;;
68074;SDS011;54864;52.002;5.468;2023-05-07T00:34:05;12.05;;;9.18;;
68074;SDS011;54864;52.002;5.468;2023-05-07T00:35:06;13.70;;;9.15;;
68074;SDS011;54864;52.002;5.468;2023-05-07T00:36:09;13.73;;;9.45;;
68074;SDS011;54864;52.002;5.468;2023-05-07T00:37:10;12.55;;;9.40;;
68074;SDS011;54864;52.002;5.468;2023-05-07T00:38:12;13.65;;;9.80;;
68074;SDS011;54864;52.002;5.468;2023-05-07T00:39:13;13.20;;;9.30;;
68074;SDS011;54864;52.002;5.468;2023-05-07T00:40:16;11.00;;;8.52;;
68074;SDS011;54864;52.002;5.468;2023-05-07T00:41:19;12.98;;;9.40;;
68074;SDS011;54864;52.002;5.468;2023-05-07T00:42:20;14.85;;;9.75;;
68074;SDS011;54864;52.002;5.468;2023-05-07T00:43:21;13.68;;;8.95;;
68074;SDS011;54864;52.002;5.468;2023-05-07T00:44:23;11.87;;;8.97;;
68074;SDS011;54864;52.002;5.468;2023-05-07T00:45:24;11.53;;;9.20;;
68074;SDS011;54864;52.002;5.468;2023-05-07T00:46:28;10.40;;;9.27;;
68074;SDS011;54864;52.002;5.468;2023-05-07T00:47:30;10.77;;;9.27;;
68074;SDS011;54864;52.002;5.468;2023-05-07T00:48:35;11.02;;;8.85;;
68074;SDS011;54864;52.002;5.468;2023-05-07T00:49:37;12.52;;;9.25;;
68074;SDS011;54864;52.002;5.468;2023-05-07T00:50:40;13.00;;;8.90;;
68074;SDS011;54864;52.002;5.468;2023-05-07T00:51:40;10.38;;;9.20;;
68074;SDS011;54864;52.002;5.468;2023-05-07T00:52:43;11.32;;;8.98;;
68074;SDS011;54864;52.002;5.468;2023-05-07T00:53:43;13.60;;;9.77;;
68074;SDS011;54864;52.002;5.468;2023-05-07T00:54:46;13.80;;;9.35;;
68074;SDS011;54864;52.002;5.468;2023-05-07T00:55:48;11.35;;;9.02;;
68074;SDS011;54864;52.002;5.468;2023-05-07T00:56:51;11.23;;;9.27;;
68074;SDS011;54864;52.002;5.468;2023-05-07T00:57:52;11.27;;;9.23;;
68074;SDS011;54864;52.002;5.468;2023-05-07T00:58:54;12.60;;;9.63;;
68074;SDS011;54864;52.002;5.468;2023-05-07T00:59:55;9.82;;;8.70;;
68074;SDS011;54864;52.002;5.468;2023-05-07T01:00:57;12.82;;;9.30;;
68074;SDS011;54864;52.002;5.468;2023-05-07T01:01:59;14.88;;;9.82;;
68074;SDS011;54864;52.002;5.468;2023-05-07T01:03:00;11.57;;;9.52;;
68074;SDS011;54864;52.002;5.468;2023-05-07T01:04:02;11.48;;;8.63;;
68074;SDS011;54864;52.002;5.468;2023-05-07T01:05:03;14.30;;;9.43;;
68074;SDS011;54864;52.002;5.468;2023-05-07T01:06:06;14.13;;;8.88;;
68074;SDS011;54864;52.002;5.468;2023-05-07T01:07:12;12.75;;;9.60;;
68074;SDS011;54864;52.002;5.468;2023-05-07T01:08:14;14.30;;;9.48;;
68074;SDS011;54864;52.002;5.468;2023-05-07T01:09:16;12.70;;;9.15;;
68074;SDS011;54864;52.002;5.468;2023-05-07T01:10:18;10.10;;;9.02;;
68074;SDS011;54864;52.002;5.468;2023-05-07T01:11:19;12.18;;;9.18;;
68074;SDS011;54864;52.002;5.468;2023-05-07T01:12:23;12.60;;;9.20;;
68074;SDS011;54864;52.002;5.468;2023-05-07T01:13:25;10.60;;;8.77;;
68074;SDS011;54864;52.002;5.468;2023-05-07T01:14:33;14.00;;;9.55;;
68074;SDS011;54864;52.002;5.468;2023-05-07T01:15:37;12.10;;;9.40;;
68074;SDS011;54864;52.002;5.468;2023-05-07T01:16:40;10.80;;;9.27;;
68074;SDS011;54864;52.002;5.468;2023-05-07T01:17:41;12.77;;;9.02;;
68074;SDS011;54864;52.002;5.468;2023-05-07T01:18:44;10.57;;;8.55;;
68074;SDS011;54864;52.002;5.468;2023-05-07T01:19:48;13.73;;;9.15;;
68074;SDS011;54864;52.002;5.468;2023-05-07T01:20:50;13.50;;;9.50;;
68074;SDS011;54864;52.002;5.468;2023-05-07T01:21:51;10.57;;;8.95;;
68074;SDS011;54864;52.002;5.468;2023-05-07T01:22:59;12.73;;;9.57;;
68074;SDS011;54864;52.002;5.468;2023-05-07T01:24:01;11.70;;;9.30;;
68074;SDS011;54864;52.002;5.468;2023-05-07T01:25:04;11.13;;;9.10;;
68074;SDS011;54864;52.002;5.468;2023-05-07T01:26:06;10.25;;;8.98;;
68074;SDS011;54864;52.002;5.468;2023-05-07T01:27:07;11.52;;;8.98;;
68074;SDS011;54864;52.002;5.468;2023-05-07T01:28:11;11.57;;;9.23;;
68074;SDS011;54864;52.002;5.468;2023-05-07T01:29:13;15.30;;;9.18;;
68074;SDS011;54864;52.002;5.468;2023-05-07T01:30:13;12.80;;;9.23;;
68074;SDS011;54864;52.002;5.468;2023-05-07T01:31:16;14.02;;;9.43;;
68074;SDS011;54864;52.002;5.468;2023-05-07T01:32:18;16.13;;;9.93;;
68074;SDS011;54864;52.002;5.468;2023-05-07T01:33:23;15.85;;;9.52;;
68074;SDS011;54864;52.002;5.468;2023-05-07T01:34:25;14.63;;;10.07;;
68074;SDS011;54864;52.002;5.468;2023-05-07T01:35:33;12.23;;;9.97;;
68074;SDS011;54864;52.002;5.468;2023-05-07T01:36:38;13.10;;;9.10;;
68074;SDS011;54864;52.002;5.468;2023-05-07T01:37:40;12.52;;;9.70;;
68074;SDS011;54864;52.002;5.468;2023-05-07T01:38:43;17.35;;;9.70;;
68074;SDS011;54864;52.002;5.468;2023-05-07T01:39:45;14.77;;;10.20;;
68074;SDS011;54864;52.002;5.468;2023-05-07T01:40:50;13.00;;;9.85;;
68074;SDS011;54864;52.002;5.468;2023-05-07T01:41:55;13.07;;;10.27;;
68074;SDS011;54864;52.002;5.468;2023-05-07T01:42:56;14.02;;;10.23;;
68074;SDS011;54864;52.002;5.468;2023-05-07T01:43:58;12.15;;;9.75;;
68074;SDS011;54864;52.002;5.468;2023-05-07T01:45:00;13.32;;;10.10;;
68074;SDS011;54864;52.002;5.468;2023-05-07T01:46:01;13.82;;;10.20;;
68074;SDS011;54864;52.002;5.468;2023-05-07T01:47:03;11.82;;;9.35;;
68074;SDS011;54864;52.002;5.468;2023-05-07T01:48:06;12.63;;;9.80;;
68074;SDS011;54864;52.002;5.468;2023-05-07T01:49:07;12.40;;;10.27;;
68074;SDS011;54864;52.002;5.468;2023-05-07T01:50:09;14.00;;;9.80;;
68074;SDS011;54864;52.002;5.468;2023-05-07T01:51:11;14.60;;;10.60;;
68074;SDS011;54864;52.002;5.468;2023-05-07T01:52:13;12.05;;;10.25;;
68074;SDS011;54864;52.002;5.468;2023-05-07T01:53:14;12.45;;;9.80;;
68074;SDS011;54864;52.002;5.468;2023-05-07T01:54:17;13.27;;;9.95;;
68074;SDS011;54864;52.002;5.468;2023-05-07T01:55:18;10.73;;;9.40;;
68074;SDS011;54864;52.002;5.468;2023-05-07T01:56:19;13.07;;;9.55;;
68074;SDS011;54864;52.002;5.468;2023-05-07T01:57:21;13.13;;;9.73;;
68074;SDS011;54864;52.002;5.468;2023-05-07T01:58:22;12.57;;;10.02;;
68074;SDS011;54864;52.002;5.468;2023-05-07T01:59:23;11.35;;;10.15;;
68074;SDS011;54864;52.002;5.468;2023-05-07T02:00:25;13.73;;;9.83;;
68074;SDS011;54864;52.002;5.468;2023-05-07T02:01:26;16.03;;;10.00;;
68074;SDS011;54864;52.002;5.468;2023-05-07T02:02:27;15.18;;;9.90;;
68074;SDS011;54864;52.002;5.468;2023-05-07T02:03:28;11.73;;;10.13;;
68074;SDS011;54864;52.002;5.468;2023-05-07T02:04:30;12.73;;;10.57;;
68074;SDS011;54864;52.002;5.468;2023-05-07T02:05:31;16.77;;;10.73;;
68074;SDS011;54864;52.002;5.468;2023-05-07T02:06:33;11.55;;;10.35;;
68074;SDS011;54864;52.002;5.468;2023-05-07T02:07:40;17.95;;;12.20;;
68074;SDS011;54864;52.002;5.468;2023-05-07T02:08:42;14.52;;;11.32;;
68074;SDS011;54864;52.002;5.468;2023-05-07T02:09:44;13.95;;;10.52;;
68074;SDS011;54864;52.002;5.468;2023-05-07T02:10:45;15.10;;;11.20;;
68074;SDS011;54864;52.002;5.468;2023-05-07T02:11:46;13.03;;;10.37;;
68074;SDS011;54864;52.002;5.468;2023-05-07T02:12:48;14.38;;;10.63;;
68074;SDS011;54864;52.002;5.468;2023-05-07T02:13:52;15.98;;;11.00;;
68074;SDS011;54864;52.002;5.468;2023-05-07T02:14:54;15.40;;;10.25;;
68074;SDS011;54864;52.002;5.468;2023-05-07T02:15:54;12.40;;;10.27;;
68074;SDS011;54864;52.002;5.468;2023-05-07T02:16:58;14.97;;;11.30;;
68074;SDS011;54864;52.002;5.468;2023-05-07T02:18:03;14.75;;;10.98;;
68074;SDS011;54864;52.002;5.468;2023-05-07T02:19:06;16.27;;;11.27;;
68074;SDS011;54864;52.002;5.468;2023-05-07T02:20:07;12.13;;;10.77;;
68074;SDS011;54864;52.002;5.468;2023-05-07T02:21:13;13.02;;;10.27;;
68074;SDS011;54864;52.002;5.468;2023-05-07T02:22:14;12.52;;;10.80;;
68074;SDS011;54864;52.002;5.468;2023-05-07T02:23:16;13.43;;;11.38;;
68074;SDS011;54864;52.002;5.468;2023-05-07T02:24:17;16.40;;;11.13;;
68074;SDS011;54864;52.002;5.468;2023-05-07T02:25:20;13.20;;;11.50;;
68074;SDS011;54864;52.002;5.468;2023-05-07T02:26:20;12.70;;;11.30;;
68074;SDS011;54864;52.002;5.468;2023-05-07T02:27:25;15.18;;;11.45;;
68074;SDS011;54864;52.002;5.468;2023-05-07T02:28:26;16.50;;;11.77;;
68074;SDS011;54864;52.002;5.468;2023-05-07T02:29:28;12.50;;;11.20;;
68074;SDS011;54864;52.002;5.468;2023-05-07T02:30:28;13.75;;;12.10;;
68074;SDS011;54864;52.002;5.468;2023-05-07T02:31:30;15.13;;;12.00;;
68074;SDS011;54864;52.002;5.468;2023-05-07T02:32:31;13.23;;;11.70;;
68074;SDS011;54864;52.002;5.468;2023-05-07T02:33:33;14.95;;;11.70;;
68074;SDS011;54864;52.002;5.468;2023-05-07T02:34:37;16.65;;;12.65;;
68074;SDS011;54864;52.002;5.468;2023-05-07T02:35:39;15.80;;;12.15;;
68074;SDS011;54864;52.002;5.468;2023-05-07T02:36:41;17.25;;;12.52;;
68074;SDS011;54864;52.002;5.468;2023-05-07T02:37:43;14.70;;;12.30;;
68074;SDS011;54864;52.002;5.468;2023-05-07T02:38:43;14.25;;;12.75;;
68074;SDS011;54864;52.002;5.468;2023-05-07T02:39:45;15.40;;;12.02;;
68074;SDS011;54864;52.002;5.468;2023-05-07T02:40:47;14.85;;;12.55;;
68074;SDS011;54864;52.002;5.468;2023-05-07T02:41:49;15.25;;;12.98;;
68074;SDS011;54864;52.002;5.468;2023-05-07T02:42:52;17.17;;;13.57;;
68074;SDS011;54864;52.002;5.468;2023-05-07T02:43:54;17.40;;;12.95;;
68074;SDS011;54864;52.002;5.468;2023-05-07T02:44:55;16.90;;;12.98;;
68074;SDS011;54864;52.002;5.468;2023-05-07T02:46:00;16.37;;;13.33;;
68074;SDS011;54864;52.002;5.468;2023-05-07T02:47:01;16.35;;;13.35;;
68074;SDS011;54864;52.002;5.468;2023-05-07T02:48:03;15.55;;;13.32;;
68074;SDS011;54864;52.002;5.468;2023-05-07T02:49:05;15.95;;;14.02;;
68074;SDS011;54864;52.002;5.468;2023-05-07T02:50:07;21.10;;;16.48;;
68074;SDS011;54864;52.002;5.468;2023-05-07T02:51:08;20.60;;;15.55;;
68074;SDS011;54864;52.002;5.468;2023-05-07T02:52:10;17.38;;;14.07;;
68074;SDS011;54864;52.002;5.468;2023-05-07T02:53:10;18.77;;;15.17;;
68074;SDS011;54864;52.002;5.468;2023-05-07T02:54:12;18.63;;;13.88;;
68074;SDS011;54864;52.002;5.468;2023-05-07T02:55:13;16.48;;;14.05;;
68074;SDS011;54864;52.002;5.468;2023-05-07T02:56:16;16.33;;;13.73;;
68074;SDS011;54864;52.002;5.468;2023-05-07T02:57:18;14.32;;;12.75;;
68074;SDS011;54864;52.002;5.468;2023-05-07T02:58:19;16.47;;;12.60;;
68074;SDS011;54864;52.002;5.468;2023-05-07T02:59:20;16.05;;;13.32;;
68074;SDS011;54864;52.002;5.468;2023-05-07T03:00:21;16.58;;;14.30;;
68074;SDS011;54864;52.002;5.468;2023-05-07T03:01:23;16.95;;;13.18;;
68074;SDS011;54864;52.002;5.468;2023-05-07T03:02:25;17.05;;;13.32;;
68074;SDS011;54864;52.002;5.468;2023-05-07T03:03:29;16.90;;;13.70;;
68074;SDS011;54864;52.002;5.468;2023-05-07T03:04:30;16.83;;;13.77;;
68074;SDS011;54864;52.002;5.468;2023-05-07T03:05:31;16.25;;;12.95;;
68074;SDS011;54864;52.002;5.468;2023-05-07T03:06:33;20.42;;;13.32;;
68074;SDS011;54864;52.002;5.468;2023-05-07T03:07:39;15.90;;;13.27;;
68074;SDS011;54864;52.002;5.468;2023-05-07T03:08:45;16.77;;;13.48;;
68074;SDS011;54864;52.002;5.468;2023-05-07T03:09:46;19.67;;;14.07;;
68074;SDS011;54864;52.002;5.468;2023-05-07T03:10:48;17.48;;;13.73;;
68074;SDS011;54864;52.002;5.468;2023-05-07T03:11:50;18.10;;;14.00;;
68074;SDS011;54864;52.002;5.468;2023-05-07T03:12:53;15.65;;;14.00;;
68074;SDS011;54864;52.002;5.468;2023-05-07T03:13:53;16.37;;;14.67;;
68074;SDS011;54864;52.002;5.468;2023-05-07T03:14:55;17.13;;;14.50;;
68074;SDS011;54864;52.002;5.468;2023-05-07T03:15:56;20.88;;;15.02;;
68074;SDS011;54864;52.002;5.468;2023-05-07T03:16:57;17.20;;;14.93;;
68074;SDS011;54864;52.002;5.468;2023-05-07T03:17:58;17.15;;;14.70;;
68074;SDS011;54864;52.002;5.468;2023-05-07T03:19:00;16.58;;;14.52;;
68074;SDS011;54864;52.002;5.468;2023-05-07T03:20:01;19.73;;;16.08;;
68074;SDS011;54864;52.002;5.468;2023-05-07T03:21:03;19.05;;;15.82;;
68074;SDS011;54864;52.002;5.468;2023-05-07T03:22:06;21.08;;;16.50;;
68074;SDS011;54864;52.002;5.468;2023-05-07T03:23:08;20.15;;;16.45;;
68074;SDS011;54864;52.002;5.468;2023-05-07T03:24:09;20.43;;;16.43;;
68074;SDS011;54864;52.002;5.468;2023-05-07T03:25:10;19.80;;;16.30;;
68074;SDS011;54864;52.002;5.468;2023-05-07T03:26:11;21.40;;;16.48;;
68074;SDS011;54864;52.002;5.468;2023-05-07T03:27:14;22.55;;;17.25;;
68074;SDS011;54864;52.002;5.468;2023-05-07T03:28:15;20.90;;;16.98;;
68074;SDS011;54864;52.002;5.468;2023-05-07T03:29:17;19.60;;;17.15;;
68074;SDS011;54864;52.002;5.468;2023-05-07T03:30:18;19.50;;;17.42;;
68074;SDS011;54864;52.002;5.468;2023-05-07T03:31:20;21.30;;;16.50;;
68074;SDS011;54864;52.002;5.468;2023-05-07T03:32:22;21.27;;;16.08;;
68074;SDS011;54864;52.002;5.468;2023-05-07T03:33:24;17.77;;;15.97;;
68074;SDS011;54864;52.002;5.468;2023-05-07T03:34:25;19.95;;;16.95;;
68074;SDS011;54864;52.002;5.468;2023-05-07T03:35:27;18.33;;;15.48;;
68074;SDS011;54864;52.002;5.468;2023-05-07T03:36:28;21.75;;;15.10;;
68074;SDS011;54864;52.002;5.468;2023-05-07T03:37:29;20.25;;;16.73;;
68074;SDS011;54864;52.002;5.468;2023-05-07T03:38:30;18.50;;;15.82;;
68074;SDS011;54864;52.002;5.468;2023-05-07T03:39:32;20.15;;;17.20;;
68074;SDS011;54864;52.002;5.468;2023-05-07T03:40:32;21.00;;;17.20;;
68074;SDS011;54864;52.002;5.468;2023-05-07T03:41:37;23.23;;;17.60;;
68074;SDS011;54864;52.002;5.468;2023-05-07T03:42:40;19.35;;;17.20;;
68074;SDS011;54864;52.002;5.468;2023-05-07T03:43:42;24.57;;;18.27;;
68074;SDS011;54864;52.002;5.468;2023-05-07T03:44:42;19.67;;;17.37;;
68074;SDS011;54864;52.002;5.468;2023-05-07T03:45:44;20.80;;;17.00;;
68074;SDS011;54864;52.002;5.468;2023-05-07T03:46:45;19.30;;;16.90;;
68074;SDS011;54864;52.002;5.468;2023-05-07T03:47:47;20.63;;;17.67;;
68074;SDS011;54864;52.002;5.468;2023-05-07T03:48:48;21.10;;;17.40;;
68074;SDS011;54864;52.002;5.468;2023-05-07T03:49:49;20.02;;;17.50;;
68074;SDS011;54864;52.002;5.468;2023-05-07T03:50:52;19.88;;;17.40;;
68074;SDS011;54864;52.002;5.468;2023-05-07T03:51:54;19.63;;;16.77;;
68074;SDS011;54864;52.002;5.468;2023-05-07T03:52:55;24.83;;;18.55;;
68074;SDS011;54864;52.002;5.468;2023-05-07T03:53:57;21.38;;;18.23;;
68074;SDS011;54864;52.002;5.468;2023-05-07T03:55:00;22.20;;;17.00;;
68074;SDS011;54864;52.002;5.468;2023-05-07T03:56:02;20.65;;;17.77;;
68074;SDS011;54864;52.002;5.468;2023-05-07T03:57:03;24.98;;;18.33;;
68074;SDS011;54864;52.002;5.468;2023-05-07T03:58:06;21.40;;;17.88;;
68074;SDS011;54864;52.002;5.468;2023-05-07T03:59:07;22.27;;;16.83;;
68074;SDS011;54864;52.002;5.468;2023-05-07T04:00:13;23.50;;;17.83;;
68074;SDS011;54864;52.002;5.468;2023-05-07T04:01:16;22.20;;;18.50;;
68074;SDS011;54864;52.002;5.468;2023-05-07T04:02:18;25.30;;;19.33;;
68074;SDS011;54864;52.002;5.468;2023-05-07T04:03:19;23.63;;;18.17;;
68074;SDS011;54864;52.002;5.468;2023-05-07T04:04:21;23.48;;;19.70;;
68074;SDS011;54864;52.002;5.468;2023-05-07T04:05:21;25.83;;;18.73;;
68074;SDS011;54864;52.002;5.468;2023-05-07T04:06:23;20.90;;;18.58;;
68074;SDS011;54864;52.002;5.468;2023-05-07T04:07:24;28.10;;;19.20;;
68074;SDS011;54864;52.002;5.468;2023-05-07T04:08:26;23.70;;;18.98;;
68074;SDS011;54864;52.002;5.468;2023-05-07T04:09:30;26.65;;;19.27;;
68074;SDS011;54864;52.002;5.468;2023-05-07T04:10:32;22.55;;;19.27;;
68074;SDS011;54864;52.002;5.468;2023-05-07T04:11:33;21.50;;;19.27;;
68074;SDS011;54864;52.002;5.468;2023-05-07T04:12:38;24.08;;;19.42;;
68074;SDS011;54864;52.002;5.468;2023-05-07T04:13:44;24.87;;;19.47;;
68074;SDS011;54864;52.002;5.468;2023-05-07T04:14:46;22.63;;;19.13;;
68074;SDS011;54864;52.002;5.468;2023-05-07T04:15:46;23.08;;;20.15;;
68074;SDS011;54864;52.002;5.468;2023-05-07T04:16:49;25.50;;;19.83;;
68074;SDS011;54864;52.002;5.468;2023-05-07T04:17:50;24.03;;;19.60;;
68074;SDS011;54864;52.002;5.468;2023-05-07T04:18:51;23.95;;;19.92;;
68074;SDS011;54864;52.002;5.468;2023-05-07T04:19:52;23.17;;;19.40;;
68074;SDS011;54864;52.002;5.468;2023-05-07T04:20:54;25.50;;;20.25;;
68074;SDS011;54864;52.002;5.468;2023-05-07T04:21:55;24.95;;;20.42;;
68074;SDS011;54864;52.002;5.468;2023-05-07T04:22:57;26.77;;;21.08;;
68074;SDS011;54864;52.002;5.468;2023-05-07T04:23:58;29.55;;;20.42;;
68074;SDS011;54864;52.002;5.468;2023-05-07T04:25:02;30.60;;;19.95;;
68074;SDS011;54864;52.002;5.468;2023-05-07T04:26:04;35.08;;;20.38;;
68074;SDS011;54864;52.002;5.468;2023-05-07T04:27:05;38.17;;;20.73;;
68074;SDS011;54864;52.002;5.468;2023-05-07T04:28:06;28.20;;;19.60;;
68074;SDS011;54864;52.002;5.468;2023-05-07T04:29:09;28.98;;;21.02;;
68074;SDS011;54864;52.002;5.468;2023-05-07T04:30:10;27.42;;;20.27;;
68074;SDS011;54864;52.002;5.468;2023-05-07T04:31:13;31.80;;;20.55;;
68074;SDS011;54864;52.002;5.468;2023-05-07T04:32:16;23.63;;;19.40;;
68074;SDS011;54864;52.002;5.468;2023-05-07T04:33:18;22.52;;;19.25;;
68074;SDS011;54864;52.002;5.468;2023-05-07T04:34:19;25.05;;;20.55;;
68074;SDS011;54864;52.002;5.468;2023-05-07T04:35:21;24.55;;;19.95;;
68074;SDS011;54864;52.002;5.468;2023-05-07T04:36:22;38.67;;;21.38;;
68074;SDS011;54864;52.002;5.468;2023-05-07T04:37:27;32.28;;;20.48;;
68074;SDS011;54864;52.002;5.468;2023-05-07T04:38:28;24.80;;;19.48;;
68074;SDS011;54864;52.002;5.468;2023-05-07T04:39:32;38.42;;;21.92;;
68074;SDS011;54864;52.002;5.468;2023-05-07T04:40:38;33.47;;;20.70;;
68074;SDS011;54864;52.002;5.468;2023-05-07T04:41:39;30.80;;;20.15;;
68074;SDS011;54864;52.002;5.468;2023-05-07T04:42:40;25.48;;;20.67;;
68074;SDS011;54864;52.002;5.468;2023-05-07T04:43:44;27.38;;;20.10;;
68074;SDS011;54864;52.002;5.468;2023-05-07T04:44:47;23.92;;;19.30;;
68074;SDS011;54864;52.002;5.468;2023-05-07T04:45:53;24.35;;;20.00;;
68074;SDS011;54864;52.002;5.468;2023-05-07T04:46:57;25.85;;;20.25;;
68074;SDS011;54864;52.002;5.468;2023-05-07T04:47:58;22.30;;;19.95;;
68074;SDS011;54864;52.002;5.468;2023-05-07T04:49:00;23.05;;;20.70;;
68074;SDS011;54864;52.002;5.468;2023-05-07T04:50:01;26.73;;;20.83;;
68074;SDS011;54864;52.002;5.468;2023-05-07T04:51:03;24.67;;;21.00;;
68074;SDS011;54864;52.002;5.468;2023-05-07T04:52:03;25.80;;;21.95;;
68074;SDS011;54864;52.002;5.468;2023-05-07T04:53:05;26.63;;;21.42;;
68074;SDS011;54864;52.002;5.468;2023-05-07T04:54:06;24.43;;;21.43;;
68074;SDS011;54864;52.002;5.468;2023-05-07T04:55:11;22.75;;;20.33;;
68074;SDS011;54864;52.002;5.468;2023-05-07T04:56:15;24.08;;;20.05;;
68074;SDS011;54864;52.002;5.468;2023-05-07T04:57:16;24.30;;;20.30;;
68074;SDS011;54864;52.002;5.468;2023-05-07T04:58:17;23.75;;;20.73;;
68074;SDS011;54864;52.002;5.468;2023-05-07T04:59:22;24.30;;;20.48;;
68074;SDS011;54864;52.002;5.468;2023-05-07T05:00:24;27.42;;;20.67;;
68074;SDS011;54864;52.002;5.468;2023-05-07T05:01:26;25.63;;;21.83;;
68074;SDS011;54864;52.002;5.468;2023-05-07T05:02:27;23.55;;;21.02;;
68074;SDS011;54864;52.002;5.468;2023-05-07T05:03:28;24.83;;;21.48;;
68074;SDS011;54864;52.002;5.468;2023-05-07T05:04:30;25.67;;;21.70;;
68074;SDS011;54864;52.002;5.468;2023-05-07T05:05:32;23.58;;;21.13;;
68074;SDS011;54864;52.002;5.468;2023-05-07T05:06:41;25.02;;;21.13;;
68074;SDS011;54864;52.002;5.468;2023-05-07T05:07:43;24.10;;;21.60;;
68074;SDS011;54864;52.002;5.468;2023-05-07T05:08:44;23.40;;;20.80;;
68074;SDS011;54864;52.002;5.468;2023-05-07T05:09:45;25.35;;;22.58;;
68074;SDS011;54864;52.002;5.468;2023-05-07T05:10:49;23.80;;;21.00;;
68074;SDS011;54864;52.002;5.468;2023-05-07T05:11:51;26.70;;;21.23;;
68074;SDS011;54864;52.002;5.468;2023-05-07T05:12:52;26.10;;;21.45;;
68074;SDS011;54864;52.002;5.468;2023-05-07T05:13:53;23.80;;;21.25;;
68074;SDS011;54864;52.002;5.468;2023-05-07T05:14:54;26.15;;;21.92;;
68074;SDS011;54864;52.002;5.468;2023-05-07T05:15:57;27.03;;;21.43;;
68074;SDS011;54864;52.002;5.468;2023-05-07T05:16:58;25.92;;;20.45;;
68074;SDS011;54864;52.002;5.468;2023-05-07T05:17:59;23.00;;;20.55;;
68074;SDS011;54864;52.002;5.468;2023-05-07T05:19:01;25.35;;;22.30;;
68074;SDS011;54864;52.002;5.468;2023-05-07T05:20:03;25.30;;;21.30;;
68074;SDS011;54864;52.002;5.468;2023-05-07T05:21:08;24.40;;;21.08;;
68074;SDS011;54864;52.002;5.468;2023-05-07T05:22:10;24.73;;;21.48;;
68074;SDS011;54864;52.002;5.468;2023-05-07T05:23:11;23.85;;;21.10;;
68074;SDS011;54864;52.002;5.468;2023-05-07T05:24:12;23.80;;;21.02;;
68074;SDS011;54864;52.002;5.468;2023-05-07T05:25:13;24.40;;;21.53;;
68074;SDS011;54864;52.002;5.468;2023-05-07T05:26:15;25.90;;;21.42;;
68074;SDS011;54864;52.002;5.468;2023-05-07T05:27:15;25.10;;;21.50;;
68074;SDS011;54864;52.002;5.468;2023-05-07T05:28:17;23.85;;;21.17;;
68074;SDS011;54864;52.002;5.468;2023-05-07T05:29:18;24.77;;;21.08;;
68074;SDS011;54864;52.002;5.468;2023-05-07T05:30:20;24.13;;;21.30;;
68074;SDS011;54864;52.002;5.468;2023-05-07T05:31:22;24.47;;;21.37;;
68074;SDS011;54864;52.002;5.468;2023-05-07T05:32:23;28.60;;;21.25;;
68074;SDS011;54864;52.002;5.468;2023-05-07T05:33:24;24.25;;;21.05;;
68074;SDS011;54864;52.002;5.468;2023-05-07T05:34:26;22.73;;;20.35;;
68074;SDS011;54864;52.002;5.468;2023-05-07T05:35:27;24.20;;;21.23;;
68074;SDS011;54864;52.002;5.468;2023-05-07T05:36:29;25.15;;;21.25;;
68074;SDS011;54864;52.002;5.468;2023-05-07T05:37:30;24.73;;;20.83;;
68074;SDS011;54864;52.002;5.468;2023-05-07T05:38:38;25.58;;;21.38;;
68074;SDS011;54864;52.002;5.468;2023-05-07T05:39:39;23.80;;;20.52;;
68074;SDS011;54864;52.002;5.468;2023-05-07T05:40:44;22.42;;;20.00;;
68074;SDS011;54864;52.002;5.468;2023-05-07T05:41:45;26.35;;;21.38;;
68074;SDS011;54864;52.002;5.468;2023-05-07T05:42:47;22.58;;;20.10;;
68074;SDS011;54864;52.002;5.468;2023-05-07T05:43:48;23.65;;;20.15;;
68074;SDS011;54864;52.002;5.468;2023-05-07T05:44:49;23.15;;;20.35;;
68074;SDS011;54864;52.002;5.468;2023-05-07T05:45:50;24.40;;;19.80;;
68074;SDS011;54864;52.002;5.468;2023-05-07T05:46:53;25.48;;;20.98;;
68074;SDS011;54864;52.002;5.468;2023-05-07T05:47:55;21.30;;;19.00;;
68074;SDS011;54864;52.002;5.468;2023-05-07T05:48:57;23.15;;;19.70;;
68074;SDS011;54864;52.002;5.468;2023-05-07T05:49:58;24.08;;;19.80;;
68074;SDS011;54864;52.002;5.468;2023-05-07T05:51:00;22.48;;;18.10;;
68074;SDS011;54864;52.002;5.468;2023-05-07T05:52:01;23.77;;;19.27;;
68074;SDS011;54864;52.002;5.468;2023-05-07T05:53:03;22.52;;;19.33;;
68074;SDS011;54864;52.002;5.468;2023-05-07T05:54:05;21.40;;;18.77;;
68074;SDS011;54864;52.002;5.468;2023-05-07T05:55:07;22.10;;;19.67;;
68074;SDS011;54864;52.002;5.468;2023-05-07T05:56:11;24.58;;;20.17;;
68074;SDS011;54864;52.002;5.468;2023-05-07T05:57:13;22.70;;;18.80;;
68074;SDS011;54864;52.002;5.468;2023-05-07T05:58:14;21.50;;;18.92;;
68074;SDS011;54864;52.002;5.468;2023-05-07T05:59:16;21.65;;;18.48;;
68074;SDS011;54864;52.002;5.468;2023-05-07T06:00:23;22.23;;;18.75;;
68074;SDS011;54864;52.002;5.468;2023-05-07T06:01:24;22.92;;;18.65;;
68074;SDS011;54864;52.002;5.468;2023-05-07T06:02:29;21.77;;;18.90;;
68074;SDS011;54864;52.002;5.468;2023-05-07T06:03:31;22.63;;;19.17;;
68074;SDS011;54864;52.002;5.468;2023-05-07T06:04:32;21.40;;;18.73;;
68074;SDS011;54864;52.002;5.468;2023-05-07T06:05:40;23.97;;;19.87;;